Time;durP1;ratioP1;P1;durP2;ratioP2;P2;SDS_P1;SDS_P2;PMS_P1;PMS_P2;Temp;Humidity;BMP_temperature;BMP_pressure;BME280_temperature;BME280_humidity;BME280_pressure;Samples;Min_cycle;Max_cycle;Signal;HPM_P1;HPM_P2
2023/06/06 00:02:19;;;;;;;29.80;14.57;;;13.00;99.90;;;;;;4950923;28;20228;-60
2023/06/06 00:04:49;;;;;;;27.73;14.10;;;13.00;99.90;;;;;;4948281;28;20244;-60
2023/06/06 00:07:18;;;;;;;27.03;14.67;;;13.00;99.90;;;;;;4953002;28;20296;-60
2023/06/06 00:09:47;;;;;;;24.27;14.60;;;13.00;99.90;;;;;;4952384;28;20188;-60
2023/06/06 00:12:16;;;;;;;27.57;13.97;;;13.00;99.90;;;;;;4949178;28;20208;-61
2023/06/06 00:14:45;;;;;;;27.13;14.00;;;12.90;99.90;;;;;;4952041;28;20227;-61
2023/06/06 00:17:13;;;;;;;23.80;13.47;;;12.90;99.90;;;;;;4952792;28;20230;-60
2023/06/06 00:19:42;;;;;;;29.47;13.43;;;12.90;99.90;;;;;;4952305;28;20231;-61
2023/06/06 00:22:11;;;;;;;27.03;14.10;;;12.80;99.90;;;;;;4950809;28;20331;-60
2023/06/06 00:24:39;;;;;;;26.77;14.17;;;12.80;99.90;;;;;;4952270;28;20647;-60
2023/06/06 00:27:07;;;;;;;27.93;13.97;;;12.80;99.90;;;;;;4954403;28;20196;-60
2023/06/06 00:29:37;;;;;;;30.17;14.27;;;12.80;99.90;;;;;;4953012;28;20223;-60
2023/06/06 00:32:06;;;;;;;28.17;14.27;;;12.80;99.90;;;;;;4952448;28;20224;-60
2023/06/06 00:34:34;;;;;;;27.97;13.80;;;12.80;99.90;;;;;;4948377;28;20242;-61
2023/06/06 00:37:03;;;;;;;29.83;14.50;;;12.70;99.90;;;;;;4942481;28;20229;-60
2023/06/06 00:39:31;;;;;;;31.07;14.20;;;12.80;99.90;;;;;;4952093;28;20196;-61
2023/06/06 00:41:59;;;;;;;24.97;13.80;;;12.80;99.90;;;;;;4952336;28;20192;-61
2023/06/06 00:44:28;;;;;;;24.93;13.63;;;12.70;99.90;;;;;;4953382;28;20231;-61
2023/06/06 00:46:57;;;;;;;25.63;14.53;;;12.70;99.90;;;;;;4952474;28;20239;-60
2023/06/06 00:49:27;;;;;;;30.60;14.33;;;12.70;99.90;;;;;;4951911;28;20231;-60
2023/06/06 00:51:56;;;;;;;24.83;13.33;;;12.70;99.90;;;;;;4956137;28;20247;-60
2023/06/06 00:54:25;;;;;;;28.33;14.43;;;12.70;99.90;;;;;;4953196;28;20212;-60
2023/06/06 00:56:54;;;;;;;25.20;13.90;;;12.70;99.90;;;;;;4950342;28;20238;-61
2023/06/06 00:59:23;;;;;;;25.93;13.83;;;12.70;99.90;;;;;;4951443;28;20223;-60
2023/06/06 01:01:52;;;;;;;22.13;13.50;;;12.70;99.90;;;;;;4950490;28;20227;-60
2023/06/06 01:04:24;;;;;;;27.83;14.43;;;12.70;99.90;;;;;;4954544;28;20610;-60
2023/06/06 01:06:53;;;;;;;28.53;13.80;;;12.70;99.90;;;;;;4955332;28;20687;-61
2023/06/06 01:09:21;;;;;;;29.93;14.00;;;12.70;99.90;;;;;;4952807;28;20717;-60
2023/06/06 01:12:03;;;;;;;24.80;12.77;;;12.60;99.90;;;;;;4952959;28;20234;-60
2023/06/06 01:14:42;;;;;;;28.23;14.10;;;12.60;99.90;;;;;;4955185;28;20242;-61
2023/06/06 01:17:12;;;;;;;27.07;13.83;;;12.60;99.90;;;;;;4953969;28;20223;-61
2023/06/06 01:19:42;;;;;;;26.87;13.07;;;12.60;99.90;;;;;;4954676;28;20223;-61
2023/06/06 01:22:13;;;;;;;27.73;13.13;;;12.60;99.90;;;;;;4951683;28;20259;-60
2023/06/06 01:24:45;;;;;;;25.17;12.40;;;12.50;99.90;;;;;;4949607;28;20687;-61
2023/06/06 01:27:13;;;;;;;24.70;12.87;;;12.50;99.90;;;;;;4954072;28;20211;-60
2023/06/06 01:29:42;;;;;;;26.40;12.63;;;12.50;99.90;;;;;;4948493;28;20220;-60
2023/06/06 01:32:17;;;;;;;26.60;13.50;;;12.50;99.90;;;;;;4954949;28;20228;-61
2023/06/06 01:34:51;;;;;;;20.23;12.03;;;12.50;99.90;;;;;;4956166;28;20690;-60
2023/06/06 01:37:31;;;;;;;22.53;11.80;;;12.50;99.90;;;;;;4947646;28;20228;-61
2023/06/06 01:40:04;;;;;;;19.50;12.20;;;12.50;99.90;;;;;;4952187;28;20220;-60
2023/06/06 01:42:34;;;;;;;23.33;11.97;;;12.50;99.90;;;;;;4948468;28;20203;-61
2023/06/06 01:45:03;;;;;;;21.07;12.50;;;12.50;99.90;;;;;;4949640;28;20710;-60
2023/06/06 01:47:32;;;;;;;20.00;11.70;;;12.50;99.90;;;;;;4953865;28;20240;-60
2023/06/06 01:50:03;;;;;;;18.03;11.73;;;12.50;99.90;;;;;;4952336;28;20714;-60
2023/06/06 01:52:37;;;;;;;20.47;12.00;;;12.40;99.90;;;;;;4953930;28;20219;-60
2023/06/06 01:55:06;;;;;;;24.03;11.23;;;12.40;99.90;;;;;;4955065;28;20717;-60
2023/06/06 01:57:34;;;;;;;20.83;11.67;;;12.40;99.90;;;;;;4953170;28;20651;-60
2023/06/06 02:00:07;;;;;;;22.13;11.97;;;12.40;99.90;;;;;;4953489;29;20864;-60
2023/06/06 02:02:35;;;;;;;22.10;11.37;;;12.40;99.90;;;;;;4963000;28;20736;-61
2023/06/06 02:05:05;;;;;;;21.37;11.73;;;12.40;99.90;;;;;;4954706;28;20226;-60
2023/06/06 02:07:34;;;;;;;19.33;10.83;;;12.30;99.90;;;;;;4953678;28;20222;-60
2023/06/06 02:10:05;;;;;;;17.80;11.40;;;12.30;99.90;;;;;;4951749;28;20709;-60
2023/06/06 02:12:34;;;;;;;21.43;11.57;;;12.30;99.90;;;;;;4949558;28;20197;-60
2023/06/06 02:15:03;;;;;;;21.10;11.03;;;12.20;99.90;;;;;;4953073;28;20215;-60
2023/06/06 02:17:31;;;;;;;17.07;11.40;;;12.20;99.90;;;;;;4953340;28;20220;-60
2023/06/06 02:20:00;;;;;;;18.83;11.03;;;12.20;99.90;;;;;;4953433;28;20311;-61
2023/06/06 02:22:28;;;;;;;18.57;11.63;;;12.30;99.90;;;;;;4956083;28;20228;-61
2023/06/06 02:24:56;;;;;;;22.33;12.00;;;12.30;99.90;;;;;;4950151;28;20235;-60
2023/06/06 02:27:26;;;;;;;17.53;11.37;;;12.30;99.90;;;;;;4951345;28;20196;-60
2023/06/06 02:29:55;;;;;;;23.60;11.80;;;12.20;99.90;;;;;;4943017;28;20212;-60
2023/06/06 02:32:24;;;;;;;20.73;11.20;;;12.20;99.90;;;;;;4954407;28;20224;-61
2023/06/06 02:34:52;;;;;;;19.90;11.37;;;12.20;99.90;;;;;;4954439;28;20271;-61
2023/06/06 02:37:21;;;;;;;21.97;12.27;;;12.20;99.90;;;;;;4953442;28;20227;-61
2023/06/06 02:39:50;;;;;;;18.37;11.53;;;12.10;99.90;;;;;;4954943;28;20238;-60
2023/06/06 02:42:18;;;;;;;19.30;11.80;;;12.10;99.90;;;;;;4951927;29;20212;-60
2023/06/06 02:44:47;;;;;;;17.63;11.20;;;12.10;99.90;;;;;;4954257;28;20220;-60
2023/06/06 02:47:16;;;;;;;19.33;12.17;;;12.20;99.90;;;;;;4954512;28;20239;-60
2023/06/06 02:49:46;;;;;;;21.53;11.87;;;12.10;99.90;;;;;;4951262;28;20224;-60
2023/06/06 02:52:14;;;;;;;19.47;11.83;;;12.10;99.90;;;;;;4954308;28;20270;-60
2023/06/06 02:54:43;;;;;;;22.60;12.67;;;12.10;99.90;;;;;;4952121;28;20263;-60
2023/06/06 02:57:11;;;;;;;18.00;11.20;;;12.10;99.90;;;;;;4948083;28;20225;-60
2023/06/06 02:59:39;;;;;;;23.67;12.50;;;12.00;99.90;;;;;;4953346;28;20224;-60
2023/06/06 03:02:10;;;;;;;19.13;11.57;;;12.00;99.90;;;;;;4950049;28;20234;-60
2023/06/06 03:04:38;;;;;;;23.63;13.00;;;12.00;99.90;;;;;;4953173;28;20759;-60
2023/06/06 03:07:10;;;;;;;25.93;12.63;;;12.00;99.90;;;;;;4948881;28;20234;-60
2023/06/06 03:09:38;;;;;;;22.00;13.00;;;12.00;99.90;;;;;;4952984;28;20623;-60
2023/06/06 03:12:07;;;;;;;18.53;12.13;;;12.00;99.90;;;;;;4948391;28;20207;-60
2023/06/06 03:14:35;;;;;;;21.20;13.27;;;12.00;99.90;;;;;;4948239;28;20255;-60
2023/06/06 03:17:24;;;;;;;20.57;12.27;;;11.90;99.90;;;;;;4948191;28;20845;-60
2023/06/06 03:19:52;;;;;;;23.53;12.93;;;11.90;99.90;;;;;;4953307;28;20700;-60
2023/06/06 03:22:20;;;;;;;30.33;15.70;;;11.90;99.90;;;;;;4950184;28;20248;-60
2023/06/06 03:24:49;;;;;;;22.93;13.67;;;11.90;99.90;;;;;;4952768;28;20196;-61
2023/06/06 03:27:18;;;;;;;27.23;14.63;;;11.90;99.90;;;;;;4951652;28;20219;-60
2023/06/06 03:29:47;;;;;;;24.20;14.03;;;11.90;99.90;;;;;;4952516;28;20223;-60
2023/06/06 03:32:15;;;;;;;26.80;14.70;;;11.90;99.90;;;;;;4953294;28;20231;-61
2023/06/06 03:34:45;;;;;;;27.00;12.73;;;11.90;99.90;;;;;;4952891;28;20560;-60
2023/06/06 03:37:13;;;;;;;22.97;12.63;;;11.80;99.90;;;;;;4952484;28;20227;-60
2023/06/06 03:39:42;;;;;;;21.73;12.73;;;11.80;99.90;;;;;;4953355;28;20207;-60
2023/06/06 03:42:10;;;;;;;24.43;13.53;;;11.80;99.90;;;;;;4954439;28;20711;-61
2023/06/06 03:44:38;;;;;;;22.73;13.47;;;11.80;99.90;;;;;;4953927;28;20227;-60
2023/06/06 03:47:07;;;;;;;22.80;13.30;;;11.80;99.90;;;;;;4952408;28;20303;-61
2023/06/06 03:49:37;;;;;;;24.37;14.57;;;11.80;99.90;;;;;;4952453;28;20580;-60
2023/06/06 03:52:08;;;;;;;23.83;14.47;;;11.80;99.90;;;;;;4953324;28;20610;-60
2023/06/06 03:54:37;;;;;;;24.83;13.77;;;11.80;99.90;;;;;;4953636;28;20207;-60
2023/06/06 03:57:08;;;;;;;23.53;12.93;;;11.80;99.90;;;;;;4952806;28;20250;-60
2023/06/06 03:59:37;;;;;;;24.03;12.80;;;11.80;99.90;;;;;;4951697;28;20224;-60
2023/06/06 04:02:06;;;;;;;21.67;13.20;;;11.80;99.90;;;;;;4948373;28;20229;-60
2023/06/06 04:04:36;;;;;;;27.30;14.70;;;11.80;99.90;;;;;;4951268;28;20247;-61
2023/06/06 04:07:06;;;;;;;23.50;13.07;;;11.80;99.90;;;;;;4951517;28;20248;-60
2023/06/06 04:09:35;;;;;;;22.37;12.47;;;11.80;99.90;;;;;;4950621;28;20204;-60
2023/06/06 04:12:05;;;;;;;21.57;12.90;;;11.80;99.90;;;;;;4951107;28;20970;-60
2023/06/06 04:14:34;;;;;;;24.70;13.77;;;11.80;99.90;;;;;;4948050;28;20219;-61
2023/06/06 04:17:02;;;;;;;20.20;12.60;;;11.80;99.90;;;;;;4952186;28;20232;-60
2023/06/06 04:19:31;;;;;;;24.33;13.03;;;11.80;99.90;;;;;;4952175;28;20224;-60
2023/06/06 04:21:59;;;;;;;20.03;13.10;;;11.90;99.90;;;;;;4952310;28;20238;-60
2023/06/06 04:24:29;;;;;;;22.03;13.37;;;11.90;99.90;;;;;;4948991;28;20197;-60
2023/06/06 04:27:03;;;;;;;24.50;12.70;;;11.90;99.90;;;;;;4953861;28;20219;-60
2023/06/06 04:29:33;;;;;;;22.60;13.70;;;11.90;99.90;;;;;;4951296;28;20754;-60
2023/06/06 04:32:02;;;;;;;26.83;12.97;;;11.90;99.90;;;;;;4951394;28;20224;-61
2023/06/06 04:34:31;;;;;;;23.97;12.27;;;12.00;99.90;;;;;;4951116;29;20228;-60
2023/06/06 04:37:03;;;;;;;23.80;12.27;;;12.00;99.90;;;;;;4952008;28;20235;-60
2023/06/06 04:39:33;;;;;;;23.63;12.83;;;12.00;99.90;;;;;;4949997;28;20663;-60
2023/06/06 04:42:04;;;;;;;22.93;12.30;;;12.00;99.90;;;;;;4948924;28;20297;-60
2023/06/06 04:44:33;;;;;;;19.47;12.60;;;12.10;99.90;;;;;;4950894;28;20635;-60
2023/06/06 04:47:03;;;;;;;22.03;12.67;;;12.10;99.90;;;;;;4950547;28;20232;-60
2023/06/06 04:49:35;;;;;;;23.50;12.07;;;12.20;99.90;;;;;;4948471;28;20230;-60
2023/06/06 04:52:05;;;;;;;23.03;12.47;;;12.30;99.90;;;;;;4950054;28;20242;-60
2023/06/06 04:54:37;;;;;;;20.97;12.73;;;12.30;99.90;;;;;;4945463;28;20203;-60
2023/06/06 04:57:06;;;;;;;18.90;11.43;;;12.30;99.90;;;;;;4953000;28;20926;-60
2023/06/06 04:59:37;;;;;;;20.00;11.97;;;12.40;99.90;;;;;;4949467;28;20978;-60
2023/06/06 05:02:06;;;;;;;16.50;11.73;;;12.40;99.90;;;;;;4948604;28;20330;-60
2023/06/06 05:04:35;;;;;;;19.50;12.40;;;12.50;99.90;;;;;;4944151;28;20322;-60
2023/06/06 05:07:04;;;;;;;20.77;12.00;;;12.50;99.90;;;;;;4945565;28;20228;-60
2023/06/06 05:09:37;;;;;;;21.43;11.90;;;12.60;99.90;;;;;;4943610;28;20255;-60
2023/06/06 05:12:06;;;;;;;20.27;12.30;;;12.60;99.90;;;;;;4944569;29;20196;-60
2023/06/06 05:14:35;;;;;;;21.07;11.70;;;12.70;99.90;;;;;;4965350;28;20231;-60
2023/06/06 05:17:03;;;;;;;18.30;11.03;;;12.80;99.90;;;;;;4947836;28;20227;-60
2023/06/06 05:19:32;;;;;;;19.37;11.90;;;12.80;99.90;;;;;;4944292;28;20220;-61
2023/06/06 05:22:00;;;;;;;17.80;12.07;;;12.80;99.90;;;;;;4941148;28;20619;-60
2023/06/06 05:24:28;;;;;;;16.53;11.60;;;12.90;99.90;;;;;;4945945;28;20193;-60
2023/06/06 05:26:58;;;;;;;24.90;12.17;;;13.00;99.90;;;;;;4948208;28;20571;-60
2023/06/06 05:29:26;;;;;;;17.07;12.27;;;13.10;99.90;;;;;;4944242;28;22106;-60
2023/06/06 05:31:54;;;;;;;17.10;11.83;;;13.10;99.90;;;;;;4945634;28;20217;-60
2023/06/06 05:34:23;;;;;;;20.43;11.27;;;13.20;99.90;;;;;;4949385;28;20617;-60
2023/06/06 05:36:51;;;;;;;21.53;12.43;;;13.20;99.90;;;;;;4948239;28;20679;-60
2023/06/06 05:39:20;;;;;;;17.17;10.70;;;13.30;99.90;;;;;;4949635;28;20196;-60
2023/06/06 05:41:50;;;;;;;20.70;11.23;;;13.40;99.90;;;;;;4948083;28;20327;-60
2023/06/06 05:44:20;;;;;;;18.13;11.93;;;13.40;99.90;;;;;;4947434;28;20220;-60
2023/06/06 05:46:53;;;;;;;19.67;11.10;;;13.60;99.90;;;;;;4951408;28;20230;-60
2023/06/06 05:49:21;;;;;;;17.70;11.00;;;13.60;99.90;;;;;;4956807;28;20220;-61
2023/06/06 05:51:50;;;;;;;19.63;11.27;;;13.60;99.90;;;;;;4952344;28;20651;-61
2023/06/06 05:54:18;;;;;;;16.33;11.13;;;13.70;99.90;;;;;;4953634;29;20212;-61
2023/06/06 05:56:46;;;;;;;19.57;10.93;;;13.70;99.90;;;;;;4959749;28;20227;-60
2023/06/06 05:59:15;;;;;;;18.73;10.70;;;13.80;99.90;;;;;;4953879;28;20220;-60
2023/06/06 06:01:47;;;;;;;15.57;10.63;;;13.90;99.90;;;;;;4952396;28;20307;-60
2023/06/06 06:04:16;;;;;;;23.17;11.40;;;13.90;99.90;;;;;;4950165;28;20220;-60
2023/06/06 06:06:46;;;;;;;19.23;11.40;;;14.00;99.90;;;;;;4952554;28;20706;-60
2023/06/06 06:09:16;;;;;;;23.07;11.10;;;14.10;99.90;;;;;;4954730;28;20247;-61
2023/06/06 06:11:45;;;;;;;16.43;10.73;;;14.10;99.90;;;;;;4953275;28;20230;-61
2023/06/06 06:14:13;;;;;;;18.73;10.37;;;14.20;99.90;;;;;;4953425;28;20227;-60
2023/06/06 06:16:41;;;;;;;15.17;10.33;;;14.30;99.90;;;;;;4951773;28;20231;-60
2023/06/06 06:19:11;;;;;;;15.57;11.03;;;14.30;99.90;;;;;;4946727;28;20599;-61
2023/06/06 06:21:39;;;;;;;19.10;10.47;;;14.40;99.90;;;;;;4947803;28;20204;-61
2023/06/06 06:24:09;;;;;;;23.97;10.70;;;14.50;99.90;;;;;;4951124;29;20224;-61
2023/06/06 06:26:37;;;;;;;15.07;10.13;;;14.60;99.90;;;;;;4953001;28;20329;-60
2023/06/06 06:29:06;;;;;;;16.97;10.97;;;14.70;99.90;;;;;;4952762;28;20236;-60
2023/06/06 06:31:34;;;;;;;26.83;11.30;;;14.70;99.90;;;;;;4953671;28;20311;-61
2023/06/06 06:34:02;;;;;;;15.50;10.07;;;14.80;99.90;;;;;;4952282;28;20228;-61
2023/06/06 06:36:32;;;;;;;15.03;10.37;;;14.90;99.90;;;;;;4953642;28;20195;-60
2023/06/06 06:39:00;;;;;;;15.13;10.00;;;15.00;99.90;;;;;;4946441;29;20295;-61
2023/06/06 06:41:29;;;;;;;17.47;10.57;;;15.00;99.90;;;;;;4951712;28;20232;-61
2023/06/06 06:43:57;;;;;;;12.80;9.70;;;15.10;99.90;;;;;;4955681;28;20697;-61
2023/06/06 06:46:25;;;;;;;17.37;10.00;;;15.10;99.90;;;;;;4955145;28;20224;-60
2023/06/06 06:48:54;;;;;;;14.83;9.77;;;15.20;99.90;;;;;;4954457;28;20235;-61
2023/06/06 06:51:22;;;;;;;16.13;9.67;;;15.20;99.90;;;;;;4946311;28;20188;-61
2023/06/06 06:53:53;;;;;;;15.37;9.60;;;15.40;99.90;;;;;;4955261;28;20228;-61
2023/06/06 06:56:22;;;;;;;13.50;9.23;;;15.50;99.90;;;;;;4951584;28;20252;-61
2023/06/06 06:58:50;;;;;;;17.90;9.40;;;15.60;99.90;;;;;;4944107;28;20221;-61
2023/06/06 07:01:19;;;;;;;15.80;9.77;;;15.80;99.90;;;;;;4951503;28;20281;-61
2023/06/06 07:03:48;;;;;;;15.63;9.97;;;15.90;99.90;;;;;;4955222;28;20547;-61
2023/06/06 07:06:18;;;;;;;11.97;8.83;;;15.90;99.90;;;;;;4954707;28;20680;-61
2023/06/06 07:08:47;;;;;;;15.57;10.27;;;16.00;99.90;;;;;;4953403;28;20214;-61
2023/06/06 07:11:17;;;;;;;12.57;9.10;;;16.00;99.90;;;;;;4955381;28;20236;-61
2023/06/06 07:13:45;;;;;;;12.67;9.40;;;16.10;99.90;;;;;;4955938;28;20220;-61
2023/06/06 07:16:13;;;;;;;18.90;10.10;;;16.20;99.90;;;;;;4958769;28;20879;-61
2023/06/06 07:18:42;;;;;;;13.23;9.63;;;16.30;99.90;;;;;;4947635;28;20214;-61
2023/06/06 07:21:12;;;;;;;12.57;9.00;;;16.40;99.90;;;;;;4956106;28;20188;-61
2023/06/06 07:23:40;;;;;;;15.13;9.50;;;16.50;99.90;;;;;;4953741;28;20236;-60
2023/06/06 07:26:10;;;;;;;12.47;9.83;;;16.70;99.90;;;;;;4953477;28;20236;-61
2023/06/06 07:28:40;;;;;;;16.80;9.83;;;16.80;99.90;;;;;;4949098;28;20303;-61
2023/06/06 07:31:11;;;;;;;16.67;9.97;;;16.90;99.90;;;;;;4954031;28;20234;-61
2023/06/06 07:33:40;;;;;;;12.90;9.40;;;17.00;99.90;;;;;;4952401;28;20194;-61
2023/06/06 07:36:09;;;;;;;15.73;10.00;;;17.00;99.90;;;;;;4954007;28;20299;-61
2023/06/06 07:38:37;;;;;;;15.40;9.30;;;17.00;99.90;;;;;;4947932;28;20224;-62
2023/06/06 07:41:05;;;;;;;16.27;10.03;;;17.30;99.90;;;;;;4954171;28;20229;-59
2023/06/06 07:43:33;;;;;;;16.80;9.63;;;17.40;99.90;;;;;;4953702;28;20237;-58
2023/06/06 07:46:03;;;;;;;13.17;9.50;;;17.40;99.90;;;;;;4953841;28;20235;-60
2023/06/06 07:48:32;;;;;;;17.63;9.73;;;17.60;99.90;;;;;;4952014;28;20233;-59
2023/06/06 07:51:00;;;;;;;15.00;9.70;;;17.70;99.90;;;;;;4954147;28;20191;-59
2023/06/06 07:53:28;;;;;;;15.37;9.50;;;17.80;99.90;;;;;;4954224;28;20579;-60
2023/06/06 07:55:57;;;;;;;12.77;9.23;;;17.80;99.90;;;;;;4953289;28;20227;-59
2023/06/06 07:58:27;;;;;;;18.43;9.47;;;18.00;99.90;;;;;;4952982;28;20970;-60
2023/06/06 08:00:58;;;;;;;15.63;9.53;;;18.10;99.90;;;;;;4952581;28;20238;-60
2023/06/06 08:03:28;;;;;;;17.20;9.97;;;18.20;99.90;;;;;;4953899;28;20211;-59
2023/06/06 08:05:57;;;;;;;14.77;9.87;;;18.30;99.90;;;;;;4954062;28;20240;-59
2023/06/06 08:08:26;;;;;;;14.50;9.70;;;18.40;99.90;;;;;;4953833;28;20220;-59
2023/06/06 08:10:55;;;;;;;13.27;9.67;;;18.50;99.90;;;;;;4950113;28;20224;-59
2023/06/06 08:13:23;;;;;;;13.00;9.37;;;18.60;99.90;;;;;;4953247;28;20299;-60
2023/06/06 08:15:51;;;;;;;15.50;10.27;;;18.70;99.90;;;;;;4952117;28;20228;-60
2023/06/06 08:18:20;;;;;;;15.43;10.00;;;18.70;99.90;;;;;;4950534;28;20212;-60
2023/06/06 08:20:50;;;;;;;17.00;9.87;;;18.80;99.90;;;;;;4949255;28;20220;-59
2023/06/06 08:23:18;;;;;;;13.23;9.50;;;18.90;99.90;;;;;;4953402;28;20358;-59
2023/06/06 08:25:46;;;;;;;16.00;10.00;;;18.90;99.90;;;;;;4947927;28;20220;-59
2023/06/06 08:28:15;;;;;;;12.70;9.57;;;19.00;99.90;;;;;;4950570;28;20231;-59
2023/06/06 08:30:43;;;;;;;14.07;9.93;;;19.30;99.90;;;;;;4953597;28;20215;-59
2023/06/06 08:33:11;;;;;;;12.70;9.33;;;19.30;99.90;;;;;;4952688;28;20227;-60
2023/06/06 08:35:40;;;;;;;15.23;9.37;;;19.40;99.90;;;;;;4951439;28;20678;-59
2023/06/06 08:38:09;;;;;;;16.40;10.23;;;19.60;99.90;;;;;;4951797;28;20235;-59
2023/06/06 08:40:38;;;;;;;15.77;9.43;;;19.80;99.90;;;;;;4946939;28;20223;-59
2023/06/06 08:43:09;;;;;;;11.07;9.10;;;19.80;99.90;;;;;;4950366;28;20216;-60
2023/06/06 08:45:39;;;;;;;10.90;8.93;;;19.90;99.90;;;;;;4952325;28;20316;-60
2023/06/06 08:48:09;;;;;;;18.10;9.43;;;19.90;99.90;;;;;;4952550;28;20242;-60
2023/06/06 08:50:40;;;;;;;12.00;9.20;;;20.10;99.90;;;;;;4949725;28;20587;-60
2023/06/06 08:53:11;;;;;;;14.40;9.03;;;20.10;99.90;;;;;;4951785;28;20252;-60
2023/06/06 08:55:40;;;;;;;16.93;9.83;;;20.40;99.90;;;;;;4952183;28;20222;-59
2023/06/06 08:58:11;;;;;;;12.37;9.20;;;20.50;99.90;;;;;;4949491;28;20233;-59
2023/06/06 09:00:39;;;;;;;11.20;8.97;;;20.60;99.90;;;;;;4949358;28;20221;-59
2023/06/06 09:03:08;;;;;;;15.90;9.27;;;20.70;99.90;;;;;;4958996;28;20406;-60
2023/06/06 09:05:38;;;;;;;12.90;9.33;;;20.90;99.90;;;;;;4953775;28;20218;-60
2023/06/06 09:08:09;;;;;;;14.57;9.37;;;21.10;99.90;;;;;;4953754;28;20227;-59
2023/06/06 09:10:37;;;;;;;11.90;9.87;;;21.30;99.90;;;;;;4953693;28;20230;-61
2023/06/06 09:13:07;;;;;;;15.73;9.03;;;21.50;99.90;;;;;;4954230;28;20224;-61
2023/06/06 09:15:35;;;;;;;13.23;9.57;;;21.40;99.90;;;;;;4954614;28;20287;-61
2023/06/06 09:18:04;;;;;;;17.90;9.27;;;21.70;99.90;;;;;;4953376;28;20195;-61
2023/06/06 09:20:34;;;;;;;13.37;8.10;;;21.80;99.90;;;;;;4948477;28;20223;-60
2023/06/06 09:23:03;;;;;;;13.27;9.00;;;22.10;99.90;;;;;;4956280;28;20228;-61
2023/06/06 09:25:34;;;;;;;11.37;8.50;;;22.50;99.90;;;;;;4958256;28;20288;-61
2023/06/06 09:28:03;;;;;;;11.77;8.70;;;22.80;99.90;;;;;;4953471;28;20284;-61
2023/06/06 09:30:35;;;;;;;12.73;8.97;;;23.00;99.90;;;;;;4957899;28;20198;-61
2023/06/06 09:33:05;;;;;;;11.80;9.07;;;22.90;99.90;;;;;;4957851;28;20212;-60
2023/06/06 09:35:35;;;;;;;14.73;8.80;;;23.10;99.90;;;;;;4957746;28;20224;-61
2023/06/06 09:38:07;;;;;;;11.20;8.50;;;23.40;99.90;;;;;;4957567;28;20250;-61
2023/06/06 09:40:46;;;;;;;11.63;7.80;;;23.50;99.90;;;;;;4947666;28;20693;-61
2023/06/06 09:43:16;;;;;;;12.82;7.40;;;23.60;99.90;;;;;;4955942;28;20225;-60
2023/06/06 09:45:51;;;;;;;13.55;7.90;;;23.80;99.90;;;;;;4953999;28;20189;-61
2023/06/06 09:48:22;;;;;;;10.95;8.00;;;24.00;99.90;;;;;;4955158;29;20321;-61
2023/06/06 09:50:51;;;;;;;9.75;8.07;;;24.40;99.90;;;;;;4956875;28;20226;-61
2023/06/06 09:53:23;;;;;;;14.00;8.75;;;24.50;99.90;;;;;;4956616;28;20220;-61
2023/06/06 09:55:54;;;;;;;15.32;7.85;;;24.70;99.90;;;;;;4956817;28;20233;-60
2023/06/06 09:58:23;;;;;;;15.70;9.27;;;24.80;99.90;;;;;;4957187;28;20257;-61
2023/06/06 10:00:52;;;;;;;11.18;8.30;;;24.80;99.90;;;;;;4957288;28;20713;-61
2023/06/06 10:03:22;;;;;;;11.40;7.78;;;24.90;99.90;;;;;;4963581;28;20220;-61
2023/06/06 10:05:52;;;;;;;12.80;7.88;;;25.20;99.90;;;;;;4956938;28;20228;-61
2023/06/06 10:08:21;;;;;;;12.35;8.15;;;25.60;99.90;;;;;;4956826;28;20228;-61
2023/06/06 10:10:51;;;;;;;12.85;7.95;;;25.80;99.90;;;;;;4950947;28;20247;-61
2023/06/06 10:13:24;;;;;;;10.98;7.85;;;25.90;99.90;;;;;;4952871;28;20220;-61
2023/06/06 10:15:58;;;;;;;13.32;7.80;;;25.90;99.90;;;;;;4957011;28;20224;-60
2023/06/06 10:18:30;;;;;;;9.70;8.20;;;25.80;99.90;;;;;;4956418;28;20204;-61
2023/06/06 10:21:01;;;;;;;9.45;8.13;;;26.00;99.90;;;;;;4957168;28;20212;-61
2023/06/06 10:23:29;;;;;;;13.20;8.13;;;26.20;99.90;;;;;;4956266;28;20220;-61
2023/06/06 10:26:01;;;;;;;10.73;7.30;;;26.40;99.90;;;;;;4961758;28;20275;-61
2023/06/06 10:28:34;;;;;;;10.43;7.45;;;26.60;99.90;;;;;;4955471;29;20224;-61
2023/06/06 10:31:09;;;;;;;15.25;8.23;;;26.80;99.90;;;;;;4951031;28;20237;-61
2023/06/06 10:33:44;;;;;;;10.82;8.05;;;26.80;99.90;;;;;;4952105;28;20184;-62
2023/06/06 10:36:17;;;;;;;9.10;7.35;;;26.40;99.90;;;;;;4949703;28;20207;-61
2023/06/06 10:39:15;;;;;;;15.18;9.20;;;26.60;99.90;;;;;;4954852;28;20231;-61
2023/06/06 10:41:50;;;;;;;11.48;7.78;;;26.70;99.90;;;;;;4944367;28;20220;-61
2023/06/06 10:44:25;;;;;;;13.93;7.50;;;26.60;99.90;;;;;;4954835;28;20325;-62
2023/06/06 10:47:24;;;;;;;10.50;7.55;;;26.80;99.90;;;;;;4956534;28;20249;-61
2023/06/06 10:50:22;;;;;;;10.15;7.10;;;26.80;99.90;;;;;;4956358;28;20223;-61
2023/06/06 10:52:52;;;;;;;11.82;8.45;;;26.50;99.90;;;;;;4953014;28;20235;-61
2023/06/06 10:55:54;;;;;;;12.25;7.68;;;26.40;99.90;;;;;;4956398;28;20601;-61
2023/06/06 10:58:28;;;;;;;14.75;8.40;;;26.60;99.90;;;;;;4910671;29;20234;-61
2023/06/06 11:01:02;;;;;;;12.52;7.88;;;26.80;99.90;;;;;;4915994;29;20247;-61
2023/06/06 11:03:38;;;;;;;10.23;8.43;;;26.70;99.90;;;;;;4939940;28;20210;-61
2023/06/06 11:06:13;;;;;;;15.88;7.80;;;26.40;99.90;;;;;;4955950;28;20219;-61
2023/06/06 11:08:44;;;;;;;9.05;7.82;;;26.50;99.90;;;;;;4954028;28;20229;-61
2023/06/06 11:11:26;;;;;;;13.25;8.27;;;26.60;99.90;;;;;;4955949;28;20234;-62
2023/06/06 11:14:00;;;;;;;13.02;7.63;;;26.70;99.90;;;;;;4956223;28;20222;-61
2023/06/06 11:16:58;;;;;;;12.88;8.00;;;27.20;99.90;;;;;;4950370;28;20222;-61
2023/06/06 11:19:37;;;;;;;10.68;7.45;;;27.10;99.90;;;;;;4955679;28;20245;-61
2023/06/06 11:22:06;;;;;;;11.75;7.90;;;26.90;99.90;;;;;;4955682;28;20303;-62
2023/06/06 11:24:37;;;;;;;12.98;7.85;;;27.00;99.90;;;;;;4956234;28;20188;-60
2023/06/06 11:27:07;;;;;;;11.52;7.90;;;27.00;99.90;;;;;;4954126;29;20276;-61
2023/06/06 11:29:36;;;;;;;12.23;9.18;;;27.20;99.90;;;;;;4955937;28;20584;-61
2023/06/06 11:32:11;;;;;;;11.43;8.20;;;27.20;99.90;;;;;;4954480;28;20318;-61
2023/06/06 11:34:39;;;;;;;13.52;9.07;;;27.00;99.90;;;;;;4955942;28;20233;-61
2023/06/06 11:37:09;;;;;;;10.05;8.35;;;27.10;99.90;;;;;;4956267;28;20333;-60
2023/06/06 11:39:37;;;;;;;14.45;8.38;;;26.80;99.90;;;;;;4955648;28;20208;-61
2023/06/06 11:42:07;;;;;;;15.85;8.50;;;26.70;99.90;;;;;;4956372;28;20296;-61
2023/06/06 11:44:37;;;;;;;9.70;7.03;;;26.90;99.90;;;;;;4955563;28;20303;-61
2023/06/06 11:47:08;;;;;;;15.38;8.00;;;26.90;99.90;;;;;;4955577;28;20243;-60
2023/06/06 11:49:47;;;;;;;12.53;7.50;;;26.90;99.90;;;;;;4955715;28;20230;-61
2023/06/06 11:52:16;;;;;;;8.98;7.05;;;26.90;99.90;;;;;;4955160;28;20238;-61
2023/06/06 11:54:53;;;;;;;11.25;8.07;;;27.00;99.90;;;;;;4951890;28;20265;-61
2023/06/06 11:57:22;;;;;;;13.53;8.17;;;27.00;99.90;;;;;;4956224;28;20188;-61
2023/06/06 11:59:54;;;;;;;12.73;7.97;;;26.70;99.90;;;;;;4955664;28;20229;-61
2023/06/06 12:02:24;;;;;;;11.30;8.40;;;26.70;99.90;;;;;;4955366;28;20238;-61
2023/06/06 12:04:53;;;;;;;17.30;8.83;;;26.70;99.90;;;;;;4955304;28;20735;-61
2023/06/06 12:07:22;;;;;;;14.57;9.07;;;26.70;99.90;;;;;;4955046;28;20767;-61
2023/06/06 12:09:59;;;;;;;12.87;8.40;;;26.50;99.90;;;;;;4954464;28;20224;-61
2023/06/06 12:12:28;;;;;;;15.87;8.43;;;26.40;99.90;;;;;;4954461;29;20196;-60
2023/06/06 12:14:58;;;;;;;12.43;8.83;;;26.50;99.90;;;;;;4950350;29;20231;-61
2023/06/06 12:17:28;;;;;;;13.67;7.83;;;26.40;99.90;;;;;;4954294;28;20228;-61
2023/06/06 12:19:58;;;;;;;8.67;6.77;;;26.30;99.90;;;;;;4949629;28;20328;-61
2023/06/06 12:22:30;;;;;;;11.43;8.10;;;26.30;99.90;;;;;;4955016;28;20216;-61
2023/06/06 12:24:58;;;;;;;13.33;8.83;;;26.50;99.90;;;;;;4954109;28;20598;-61
2023/06/06 12:27:28;;;;;;;13.10;7.67;;;26.50;99.90;;;;;;4954405;29;20196;-61
2023/06/06 12:29:57;;;;;;;15.63;8.40;;;26.50;99.90;;;;;;4954638;28;20219;-60
2023/06/06 12:32:29;;;;;;;15.87;8.70;;;26.50;99.90;;;;;;4954732;28;20228;-60
2023/06/06 12:35:02;;;;;;;11.57;8.23;;;26.50;99.90;;;;;;4954761;28;20216;-60
2023/06/06 12:37:38;;;;;;;11.53;7.57;;;26.60;99.90;;;;;;4954744;28;20279;-61
2023/06/06 12:40:18;;;;;;;12.63;7.73;;;26.60;99.90;;;;;;4954420;28;20227;-61
2023/06/06 12:42:54;;;;;;;18.67;8.27;;;26.50;99.90;;;;;;4954674;28;20247;-61
2023/06/06 12:45:24;;;;;;;9.27;7.40;;;26.50;99.90;;;;;;4955047;28;20665;-60
2023/06/06 12:47:55;;;;;;;9.93;7.93;;;26.60;99.90;;;;;;4954015;28;20228;-60